createdAt,value
2019-05-06T00:01:54.191Z,3.63
2019-05-06T00:04:24.701Z,3.57
2019-05-06T00:06:54.887Z,3.70
2019-05-06T00:09:24.531Z,3.40
2019-05-06T00:11:54.622Z,3.30
2019-05-06T00:14:24.463Z,3.60
2019-05-06T00:16:55.117Z,3.97
2019-05-06T00:19:25.246Z,3.20
2019-05-06T00:21:54.649Z,3.60
2019-05-06T00:24:26.377Z,3.40
2019-05-06T00:27:05.638Z,4.00
2019-05-06T00:29:35.233Z,4.20
2019-05-06T00:32:04.966Z,3.90
2019-05-06T00:34:34.480Z,3.93
2019-05-06T00:37:04.033Z,4.03
2019-05-06T00:40:04.852Z,3.67
2019-05-06T00:42:36.735Z,4.17
2019-05-06T00:45:07.556Z,4.00
2019-05-06T00:47:36.950Z,3.37
2019-05-06T00:50:07.112Z,3.80
2019-05-06T00:52:37.544Z,4.53
2019-05-06T00:55:07.656Z,3.60
2019-05-06T00:57:46.583Z,4.13
2019-05-06T01:00:19.397Z,4.07
2019-05-06T01:02:48.994Z,3.43
2019-05-06T01:05:18.653Z,4.60
2019-05-06T01:07:48.052Z,4.30
2019-05-06T01:10:20.582Z,4.10
2019-05-06T01:12:56.959Z,4.10
2019-05-06T01:15:27.823Z,4.87
2019-05-06T01:17:57.209Z,4.17
2019-05-06T01:20:26.768Z,4.73
2019-05-06T01:22:56.285Z,4.93
2019-05-06T01:25:25.673Z,4.77
2019-05-06T01:27:55.107Z,5.30
2019-05-06T01:30:24.905Z,4.83
2019-05-06T01:32:54.528Z,4.33
2019-05-06T01:35:24.517Z,4.47
2019-05-06T01:38:14.576Z,4.53
2019-05-06T01:40:54.699Z,4.37
2019-05-06T01:43:28.262Z,4.80
2019-05-06T01:45:57.720Z,4.00
2019-05-06T01:48:44.941Z,4.20
2019-05-06T01:51:14.475Z,3.90
2019-05-06T01:53:44.886Z,4.83
2019-05-06T01:56:14.639Z,4.77
2019-05-06T01:58:44.200Z,5.23
2019-05-06T02:01:14.839Z,4.67
2019-05-06T02:03:44.454Z,5.10
2019-05-06T02:06:14.314Z,4.27
2019-05-06T02:08:44.814Z,4.90
2019-05-06T02:11:15.012Z,5.27
2019-05-06T02:13:44.642Z,6.07
2019-05-06T02:16:14.752Z,5.50
2019-05-06T02:18:45.173Z,6.07
2019-05-06T02:21:26.329Z,5.47
2019-05-06T02:24:00.274Z,5.50
2019-05-06T02:26:29.844Z,6.20
2019-05-06T02:29:00.890Z,6.07
2019-05-06T02:32:19.865Z,6.43
2019-05-06T02:34:45.817Z,5.70
2019-05-06T02:37:25.804Z,6.00
2019-05-06T02:39:55.208Z,6.63
2019-05-06T02:42:24.743Z,6.73
2019-05-06T02:44:54.691Z,7.07
2019-05-06T02:47:45.548Z,6.07
2019-05-06T02:50:17.450Z,5.70
2019-05-06T02:52:46.995Z,6.07
2019-05-06T02:55:16.523Z,6.00
2019-05-06T02:57:45.954Z,6.03
2019-05-06T03:00:19.429Z,6.50
2019-05-06T03:02:49.052Z,5.40
2019-05-06T03:05:18.593Z,5.73
2019-05-06T03:07:48.001Z,5.93
2019-05-06T03:10:17.811Z,5.67
2019-05-06T03:12:47.269Z,6.03
2019-05-06T03:15:17.109Z,6.50
2019-05-06T03:17:46.779Z,6.90
2019-05-06T03:20:29.283Z,7.13
2019-05-06T03:23:06.306Z,6.83
2019-05-06T03:25:38.250Z,7.57
2019-05-06T03:28:07.755Z,7.50
2019-05-06T03:30:37.256Z,8.10
2019-05-06T03:33:40.126Z,7.80
2019-05-06T03:35:56.039Z,7.33
2019-05-06T03:38:09.242Z,7.87
2019-05-06T03:40:45.072Z,7.03
2019-05-06T03:43:13.672Z,6.93
2019-05-06T03:46:04.448Z,6.50
2019-05-06T03:48:37.012Z,7.00
2019-05-06T03:51:06.501Z,6.30
2019-05-06T03:53:37.086Z,6.70
2019-05-06T03:56:06.591Z,6.03
2019-05-06T03:58:38.390Z,5.80
2019-05-06T04:01:07.987Z,5.20
2019-05-06T04:03:47.071Z,6.33
2019-05-06T04:06:08.527Z,5.50
2019-05-06T04:08:38.714Z,5.43
2019-05-06T04:11:08.537Z,5.40
2019-05-06T04:13:38.342Z,5.83
2019-05-06T04:16:29.687Z,5.70
2019-05-06T04:19:07.223Z,6.33
2019-05-06T04:21:47.358Z,5.83
2019-05-06T04:24:26.978Z,4.87
2019-05-06T04:27:17.240Z,5.63
2019-05-06T04:29:46.856Z,6.13
2019-05-06T04:32:17.372Z,6.27
2019-05-06T04:34:47.218Z,6.50
2019-05-06T04:37:18.250Z,5.73
2019-05-06T04:39:53.322Z,5.33
2019-05-06T04:42:23.192Z,5.70
2019-05-06T04:44:53.379Z,5.33
2019-05-06T04:47:24.143Z,6.17
2019-05-06T04:49:53.945Z,5.57
2019-05-06T04:52:26.056Z,5.60
2019-05-06T04:54:54.785Z,5.40
2019-05-06T04:57:24.330Z,6.40
2019-05-06T04:59:54.515Z,5.33
2019-05-06T05:02:24.014Z,7.00
2019-05-06T05:04:54.073Z,6.27
2019-05-06T05:07:23.594Z,6.03
2019-05-06T05:10:03.219Z,5.03
2019-05-06T05:12:42.573Z,5.70
2019-05-06T05:15:29.125Z,5.23
2019-05-06T05:18:16.084Z,4.90
2019-05-06T05:20:46.880Z,5.30
2019-05-06T05:23:16.538Z,4.93
2019-05-06T05:25:46.155Z,4.10
2019-05-06T05:28:16.092Z,3.70
2019-05-06T05:30:46.310Z,4.90
2019-05-06T05:33:16.101Z,5.37
2019-05-06T05:35:45.630Z,4.73
2019-05-06T05:38:15.028Z,5.13
2019-05-06T05:40:45.356Z,4.73
2019-05-06T05:43:32.502Z,4.60
2019-05-06T05:46:02.907Z,4.10
2019-05-06T05:48:54.757Z,4.53
2019-05-06T05:51:24.266Z,4.77
2019-05-06T05:53:54.496Z,4.33
2019-05-06T05:56:24.200Z,3.83
2019-05-06T05:58:53.766Z,4.77
2019-05-06T06:01:25.270Z,4.50
2019-05-06T06:03:54.697Z,4.43
2019-05-06T06:06:24.433Z,4.00
2019-05-06T06:08:54.083Z,4.73
2019-05-06T06:11:32.705Z,6.00
2019-05-06T06:14:05.792Z,5.47
2019-05-06T06:17:06.858Z,5.27
2019-05-06T06:19:49.164Z,5.50
2019-05-06T06:22:22.786Z,8.77
2019-05-06T06:24:52.646Z,5.57
2019-05-06T06:27:22.816Z,5.30
2019-05-06T06:29:52.822Z,5.72
2019-05-06T06:32:27.619Z,5.83
2019-05-06T06:35:19.427Z,6.08
2019-05-06T06:38:12.323Z,5.40
2019-05-06T06:40:42.556Z,4.93
2019-05-06T06:43:17.166Z,6.90
2019-05-06T06:45:46.935Z,6.23
2019-05-06T06:48:16.469Z,5.60
2019-05-06T06:50:46.396Z,5.60
2019-05-06T06:53:15.869Z,5.13
2019-05-06T06:55:45.959Z,4.70
2019-05-06T06:58:36.924Z,4.90
2019-05-06T07:01:27.145Z,5.90
2019-05-06T07:04:10.260Z,5.87
2019-05-06T07:06:42.371Z,5.00
2019-05-06T07:09:12.526Z,6.00
2019-05-06T07:11:42.799Z,5.60
2019-05-06T07:14:13.724Z,4.70
2019-05-06T07:16:43.488Z,5.53
2019-05-06T07:19:15.274Z,5.53
2019-05-06T07:22:03.009Z,5.50
2019-05-06T07:24:32.571Z,4.57
2019-05-06T07:27:26.863Z,4.70
2019-05-06T07:29:56.292Z,4.63
2019-05-06T07:32:25.674Z,4.67
2019-05-06T07:34:55.274Z,5.10
2019-05-06T07:37:25.802Z,4.40
2019-05-06T07:39:55.213Z,5.27
2019-05-06T07:42:32.247Z,4.77
2019-05-06T07:45:12.528Z,4.40
2019-05-06T07:48:12.665Z,5.90
2019-05-06T07:50:42.529Z,4.30
2019-05-06T07:53:13.349Z,5.73
2019-05-06T07:55:43.038Z,4.87
2019-05-06T07:58:13.877Z,4.83
2019-05-06T08:00:43.633Z,4.20
2019-05-06T08:03:14.083Z,3.80
2019-05-06T08:05:54.807Z,3.50
2019-05-06T08:08:14.678Z,4.10
2019-05-06T08:10:44.218Z,3.93
2019-05-06T08:13:13.864Z,4.47
2019-05-06T08:15:43.282Z,4.27
2019-05-06T08:18:13.394Z,5.00
2019-05-06T08:20:42.900Z,3.80
2019-05-06T08:23:34.393Z,4.57
2019-05-06T08:26:12.595Z,4.10
2019-05-06T08:28:40.608Z,4.12
2019-05-06T08:31:06.408Z,4.30
2019-05-06T08:33:35.894Z,2.75
2019-05-06T08:36:14.039Z,3.47
2019-05-06T08:38:58.877Z,3.17
2019-05-06T08:41:28.764Z,4.55
2019-05-06T08:43:58.559Z,3.93
2019-05-06T08:46:28.181Z,3.22
2019-05-06T08:48:57.679Z,4.20
2019-05-06T08:51:49.151Z,5.10
2019-05-06T08:54:25.233Z,5.85
2019-05-06T08:56:54.829Z,5.35
2019-05-06T08:59:24.741Z,5.10
2019-05-06T09:01:54.568Z,8.10
2019-05-06T09:04:23.994Z,9.13
2019-05-06T09:06:53.736Z,9.43
2019-05-06T09:09:23.224Z,6.63
2019-05-06T09:11:53.627Z,4.17
2019-05-06T09:14:23.792Z,5.20
2019-05-06T09:16:54.181Z,5.43
2019-05-06T09:19:24.621Z,5.37
2019-05-06T09:21:54.137Z,4.78
2019-05-06T09:24:23.832Z,3.90
2019-05-06T09:27:05.669Z,4.15
2019-05-06T09:29:43.673Z,3.97
2019-05-06T09:32:19.783Z,4.43
2019-05-06T09:34:52.804Z,4.07
2019-05-06T09:37:23.920Z,4.67
2019-05-06T09:39:53.794Z,4.10
2019-05-06T09:42:23.478Z,3.57
2019-05-06T09:44:54.935Z,4.43
2019-05-06T09:47:42.431Z,4.27
2019-05-06T09:50:14.059Z,3.37
2019-05-06T09:52:43.676Z,3.40
2019-05-06T09:55:28.678Z,3.22
2019-05-06T09:57:59.693Z,3.45
2019-05-06T10:00:32.955Z,3.77
2019-05-06T10:03:03.114Z,2.72
2019-05-06T10:05:33.038Z,3.05
2019-05-06T10:08:03.291Z,2.67
2019-05-06T10:10:32.988Z,2.70
2019-05-06T10:13:02.892Z,2.53
2019-05-06T10:15:33.399Z,3.20
2019-05-06T10:18:12.744Z,2.90
2019-05-06T10:20:45.876Z,2.92
2019-05-06T10:23:16.234Z,2.87
2019-05-06T10:25:45.634Z,3.22
2019-05-06T10:28:43.365Z,3.10
2019-05-06T10:31:15.041Z,2.33
2019-05-06T10:34:03.040Z,3.05
2019-05-06T10:36:42.722Z,2.70
2019-05-06T10:39:15.061Z,2.67
2019-05-06T10:41:49.214Z,3.55
2019-05-06T10:44:53.517Z,2.70
2019-05-06T10:47:23.068Z,2.80
2019-05-06T10:49:52.965Z,3.10
2019-05-06T10:52:27.110Z,2.27
2019-05-06T10:54:56.711Z,3.45
2019-05-06T10:57:40.467Z,2.80
2019-05-06T11:00:12.255Z,2.02
2019-05-06T11:02:46.842Z,2.60
2019-05-06T11:05:16.824Z,2.80
2019-05-06T11:07:46.326Z,3.25
2019-05-06T11:10:24.388Z,2.60
2019-05-06T11:12:47.085Z,3.75
2019-05-06T11:15:16.715Z,2.37
2019-05-06T11:17:46.278Z,2.30
2019-05-06T11:20:15.665Z,4.67
2019-05-06T11:22:45.180Z,3.85
2019-05-06T11:25:14.738Z,3.72
2019-05-06T11:27:45.187Z,3.02
2019-05-06T11:30:34.761Z,2.83
2019-05-06T11:33:10.040Z,3.10
2019-05-06T11:35:54.558Z,2.85
2019-05-06T11:38:23.960Z,2.62
2019-05-06T11:40:53.566Z,2.85
2019-05-06T11:43:23.129Z,2.70
2019-05-06T11:45:52.526Z,2.52
2019-05-06T11:48:22.451Z,2.75
2019-05-06T11:50:55.028Z,2.67
2019-05-06T11:53:24.657Z,3.02
2019-05-06T11:55:55.201Z,3.25
2019-05-06T11:58:44.304Z,2.90
2019-05-06T12:01:24.596Z,2.37
2019-05-06T12:03:54.586Z,2.33
2019-05-06T12:06:24.490Z,2.55
2019-05-06T12:08:54.251Z,2.92
2019-05-06T12:11:23.960Z,6.05
2019-05-06T12:13:53.581Z,3.15
2019-05-06T12:16:26.237Z,3.20
2019-05-06T12:18:59.520Z,3.85
2019-05-06T12:21:27.487Z,3.90
2019-05-06T12:23:56.966Z,3.20
2019-05-06T12:26:26.480Z,3.10
2019-05-06T12:28:55.843Z,3.00
2019-05-06T12:31:25.540Z,2.53
2019-05-06T12:33:55.218Z,2.43
2019-05-06T12:36:26.648Z,2.27
2019-05-06T12:39:17.081Z,2.10
2019-05-06T12:41:55.079Z,2.23
2019-05-06T12:44:24.495Z,2.00
2019-05-06T12:47:03.295Z,2.22
2019-05-06T12:49:33.121Z,2.33
2019-05-06T12:52:02.567Z,2.42
2019-05-06T12:54:33.559Z,2.08
2019-05-06T12:57:03.603Z,2.33
2019-05-06T12:59:33.161Z,2.20
2019-05-06T13:02:06.413Z,1.65
2019-05-06T13:04:51.428Z,2.15
2019-05-06T13:07:13.659Z,2.10
2019-05-06T13:09:45.352Z,2.15
2019-05-06T13:12:18.581Z,2.22
2019-05-06T13:14:47.999Z,2.07
2019-05-06T13:17:22.853Z,2.20
2019-05-06T13:19:52.510Z,1.77
2019-05-06T13:22:34.027Z,2.07
2019-05-06T13:25:04.502Z,1.90
2019-05-06T13:27:34.201Z,2.17
2019-05-06T13:30:03.683Z,1.70
2019-05-06T13:32:35.010Z,1.63
2019-05-06T13:35:04.781Z,2.10
2019-05-06T13:37:34.164Z,2.43
2019-05-06T13:40:03.823Z,2.00
2019-05-06T13:42:35.009Z,2.37
2019-05-06T13:45:04.871Z,2.00
2019-05-06T13:47:56.640Z,1.90
2019-05-06T13:50:29.656Z,3.37
2019-05-06T13:53:11.443Z,2.30
2019-05-06T13:55:36.414Z,1.60
2019-05-06T13:58:05.787Z,2.57
2019-05-06T14:00:36.622Z,3.40
2019-05-06T14:03:06.213Z,1.80
2019-05-06T14:05:35.609Z,2.00
2019-05-06T14:08:05.151Z,1.87
2019-05-06T14:10:34.634Z,2.50
2019-05-06T14:13:04.016Z,1.80
2019-05-06T14:15:33.435Z,1.33
2019-05-06T14:18:03.058Z,1.70
2019-05-06T14:20:33.560Z,2.13
2019-05-06T14:23:03.197Z,1.50
2019-05-06T14:25:52.845Z,1.60
2019-05-06T14:28:32.394Z,1.70
2019-05-06T14:31:16.532Z,1.70
2019-05-06T14:33:45.957Z,1.67
2019-05-06T14:36:15.337Z,1.50
2019-05-06T14:38:44.825Z,1.70
2019-05-06T14:41:17.887Z,1.60
2019-05-06T14:43:47.417Z,1.70
2019-05-06T14:46:17.200Z,1.83
2019-05-06T14:48:46.625Z,1.57
2019-05-06T14:51:16.328Z,1.70
2019-05-06T14:53:45.812Z,1.90
2019-05-06T14:56:23.928Z,1.97
2019-05-06T14:59:06.929Z,1.53
2019-05-06T15:01:38.510Z,1.50
2019-05-06T15:04:08.112Z,1.47
2019-05-06T15:06:37.718Z,1.50
2019-05-06T15:09:13.350Z,1.50
2019-05-06T15:11:43.394Z,1.63
2019-05-06T15:14:13.351Z,1.67
2019-05-06T15:16:42.982Z,1.60
2019-05-06T15:19:12.976Z,2.37
2019-05-06T15:21:43.044Z,1.60
2019-05-06T15:24:13.851Z,1.63
2019-05-06T15:26:43.950Z,1.77
2019-05-06T15:29:13.486Z,1.70
2019-05-06T15:31:56.606Z,1.90
2019-05-06T15:34:35.207Z,2.17
2019-05-06T15:37:17.262Z,2.20
2019-05-06T15:39:46.751Z,2.33
2019-05-06T15:42:16.412Z,2.43
2019-05-06T15:44:46.028Z,1.97
2019-05-06T15:47:15.511Z,1.70
2019-05-06T15:49:44.989Z,2.00
2019-05-06T15:52:14.532Z,1.97
2019-05-06T15:54:43.913Z,1.90
2019-05-06T15:57:13.286Z,2.00
2019-05-06T15:59:44.503Z,2.10
2019-05-06T16:02:14.140Z,1.90
2019-05-06T16:04:43.540Z,2.00
2019-05-06T16:07:13.199Z,2.00
2019-05-06T16:09:43.052Z,1.90
2019-05-06T16:12:12.864Z,1.80
2019-05-06T16:14:43.531Z,2.10
2019-05-06T16:17:15.172Z,2.03
2019-05-06T16:19:44.661Z,2.17
2019-05-06T16:22:14.086Z,2.17
2019-05-06T16:24:48.257Z,2.80
2019-05-06T16:27:17.902Z,2.20
2019-05-06T16:29:47.286Z,2.27
2019-05-06T16:32:16.989Z,2.67
2019-05-06T16:34:46.531Z,3.17
2019-05-06T16:37:16.024Z,2.50
2019-05-06T16:39:45.415Z,2.53
2019-05-06T16:42:14.856Z,2.30
2019-05-06T16:44:45.400Z,2.33
2019-05-06T16:47:33.904Z,2.23
2019-05-06T16:50:03.406Z,2.37
2019-05-06T16:52:33.710Z,2.43
2019-05-06T16:55:03.500Z,1.97
2019-05-06T16:57:33.343Z,1.87
2019-05-06T17:00:03.100Z,1.80
2019-05-06T17:02:56.543Z,2.30
2019-05-06T17:05:33.718Z,2.10
2019-05-06T17:08:03.353Z,2.03
2019-05-06T17:10:32.811Z,2.53
2019-05-06T17:13:02.946Z,2.43
2019-05-06T17:15:32.950Z,2.70
2019-05-06T17:18:03.262Z,2.60
2019-05-06T17:20:33.040Z,2.43
2019-05-06T17:23:03.053Z,2.63
2019-05-06T17:25:33.673Z,2.70
2019-05-06T17:28:18.295Z,2.60
2019-05-06T17:31:06.714Z,2.40
2019-05-06T17:33:38.770Z,2.73
2019-05-06T17:36:12.554Z,2.63
2019-05-06T17:38:46.902Z,3.10
2019-05-06T17:41:16.639Z,3.67
2019-05-06T17:43:46.181Z,2.70
2019-05-06T17:46:17.503Z,2.43
2019-05-06T17:49:05.821Z,2.43
2019-05-06T17:51:42.553Z,2.80
2019-05-06T17:54:12.445Z,3.00
2019-05-06T17:56:42.014Z,3.43
2019-05-06T17:59:11.469Z,3.80
2019-05-06T18:01:44.905Z,3.50
2019-05-06T18:04:14.412Z,4.10
2019-05-06T18:06:43.857Z,4.77
2019-05-06T18:09:13.380Z,3.90
2019-05-06T18:11:57.609Z,3.20
2019-05-06T18:14:13.964Z,3.43
2019-05-06T18:16:43.498Z,3.87
2019-05-06T18:19:13.074Z,2.73
2019-05-06T18:21:42.612Z,3.10
2019-05-06T18:24:12.864Z,3.03
2019-05-06T18:26:42.653Z,2.27
2019-05-06T18:29:12.686Z,2.80
2019-05-06T18:31:42.803Z,2.10
2019-05-06T18:34:12.872Z,2.40
2019-05-06T18:36:43.059Z,2.43
2019-05-06T18:39:12.942Z,1.87
2019-05-06T18:41:42.329Z,2.50
2019-05-06T18:44:12.115Z,2.10
2019-05-06T18:46:42.192Z,2.03
2019-05-06T18:49:13.089Z,2.10
2019-05-06T18:51:42.973Z,1.80
2019-05-06T18:54:12.627Z,2.20
2019-05-06T18:56:43.008Z,1.90
2019-05-06T18:59:12.628Z,1.97
2019-05-06T19:01:43.355Z,1.90
2019-05-06T19:04:18.689Z,2.00
2019-05-06T19:06:48.101Z,2.30
2019-05-06T19:09:42.489Z,2.27
2019-05-06T19:12:12.767Z,2.00
2019-05-06T19:14:43.414Z,2.17
2019-05-06T19:17:13.223Z,2.90
2019-05-06T19:19:42.901Z,2.63
2019-05-06T19:22:14.054Z,2.60
2019-05-06T19:24:44.751Z,2.23
2019-05-06T19:27:14.244Z,2.83
2019-05-06T19:29:43.771Z,2.60
2019-05-06T19:32:13.213Z,3.53
2019-05-06T19:34:42.909Z,2.70
2019-05-06T19:37:12.403Z,2.67
2019-05-06T19:39:43.069Z,2.50
2019-05-06T19:42:13.053Z,3.10
2019-05-06T19:44:43.152Z,2.80
2019-05-06T19:47:13.856Z,2.50
2019-05-06T19:49:43.353Z,2.50
2019-05-06T19:52:12.740Z,2.47
2019-05-06T19:54:42.551Z,2.43
2019-05-06T19:57:15.665Z,3.17
2019-05-06T19:59:43.348Z,3.20
2019-05-06T20:02:13.029Z,2.80
2019-05-06T20:04:44.599Z,3.40
2019-05-06T20:07:26.977Z,3.10
2019-05-06T20:10:27.561Z,3.10
2019-05-06T20:13:02.710Z,3.10
2019-05-06T20:15:43.177Z,3.50
2019-05-06T20:18:12.604Z,3.53
2019-05-06T20:20:42.499Z,3.20
2019-05-06T20:23:12.652Z,3.03
2019-05-06T20:25:44.716Z,2.77
2019-05-06T20:28:13.499Z,3.13
2019-05-06T20:30:42.901Z,3.20
2019-05-06T20:33:12.636Z,2.90
2019-05-06T20:35:43.178Z,2.93
2019-05-06T20:38:12.925Z,2.90
2019-05-06T20:40:43.244Z,3.03
2019-05-06T20:43:19.695Z,3.30
2019-05-06T20:45:44.107Z,3.27
2019-05-06T20:48:13.636Z,3.17
2019-05-06T20:50:43.179Z,3.30
2019-05-06T20:53:12.981Z,3.13
2019-05-06T20:55:43.381Z,3.43
2019-05-06T20:58:13.123Z,3.73
2019-05-06T21:00:43.151Z,3.40
2019-05-06T21:03:12.827Z,3.63
2019-05-06T21:05:43.560Z,3.93
2019-05-06T21:08:13.285Z,3.60
2019-05-06T21:10:42.842Z,4.00
2019-05-06T21:13:13.281Z,3.30
2019-05-06T21:15:43.395Z,3.77
2019-05-06T21:18:12.984Z,2.90
2019-05-06T21:20:43.501Z,3.30
2019-05-06T21:23:14.738Z,3.10
2019-05-06T21:25:44.224Z,3.07
2019-05-06T21:28:13.719Z,2.80
2019-05-06T21:30:43.134Z,2.50
2019-05-06T21:33:12.697Z,2.30
2019-05-06T21:35:42.522Z,2.20
2019-05-06T21:38:12.397Z,1.73
2019-05-06T21:40:43.343Z,1.93
2019-05-06T21:43:13.265Z,1.77
2019-05-06T21:45:42.918Z,1.73
2019-05-06T21:48:13.641Z,1.90
2019-05-06T21:50:43.228Z,1.77
2019-05-06T21:53:14.718Z,1.93
2019-05-06T21:55:44.035Z,2.20
2019-05-06T21:58:13.426Z,2.10
2019-05-06T22:00:47.691Z,2.27
2019-05-06T22:03:17.451Z,2.30
2019-05-06T22:05:46.942Z,2.60
2019-05-06T22:08:16.383Z,3.00
2019-05-06T22:10:45.883Z,2.60
2019-05-06T22:13:15.290Z,2.50
2019-05-06T22:15:44.714Z,2.10
2019-05-06T22:18:14.196Z,2.37
2019-05-06T22:21:02.935Z,2.60
2019-05-06T22:23:52.968Z,2.43
2019-05-06T22:26:23.318Z,2.30
2019-05-06T22:28:53.123Z,2.20
2019-05-06T22:31:24.264Z,2.60
2019-05-06T22:33:54.282Z,2.20
2019-05-06T22:36:24.055Z,4.03
2019-05-06T22:38:53.546Z,2.70
2019-05-06T22:41:25.401Z,3.07
2019-05-06T22:44:56.978Z,3.83
2019-05-06T22:50:42.533Z,3.00
2019-05-06T22:53:13.058Z,2.80
2019-05-06T22:55:42.881Z,3.43
2019-05-06T22:58:12.330Z,2.90
2019-05-06T23:00:44.403Z,3.00
2019-05-06T23:03:16.075Z,2.83
2019-05-06T23:05:45.466Z,3.00
2019-05-06T23:08:14.890Z,4.80
2019-05-06T23:10:44.385Z,5.23
2019-05-06T23:13:13.875Z,5.43
2019-05-06T23:15:43.357Z,5.50
2019-05-06T23:18:12.738Z,4.70
2019-05-06T23:20:43.040Z,4.30
2019-05-06T23:23:12.891Z,4.30
2019-05-06T23:25:43.597Z,5.17
2019-05-06T23:28:13.088Z,4.83
2019-05-06T23:30:42.938Z,4.43
2019-05-06T23:33:14.015Z,4.87
2019-05-06T23:35:43.949Z,4.30
2019-05-06T23:38:49.629Z,5.87
2019-05-06T23:41:54.878Z,5.30
2019-05-06T23:44:59.938Z,5.00
2019-05-06T23:48:04.961Z,6.40
2019-05-06T23:51:09.930Z,6.80
2019-05-06T23:54:15.089Z,7.10
2019-05-06T23:56:43.837Z,6.97
2019-05-06T23:59:15.721Z,7.73
